Pagrindinis puslapis
METAR-TAF:

METAR-TAF

Oro uostai :

Kangerlussuaq, Grenlandija

platuma: 67-01N, ilguma: 050-42W, Aukštis: 50 m

Dabartinis oras

Ataskaita buvo paskelbta 13 minutes, ne 15:50 UTC
Vėjas 5 kt iš Vakarų/Pietvakarių, svyruoja nuo Pietvakarių ir Vakarų
Temperatūra 7°C
Drėgmė 66%
Slėgis 992 hPa
Matomumas 10 km arba daugiau

METAR: BGSF 221550Z AUTO 25005KT 220V280 9999NDV SCT190/// 07/01 Q0992

Laikas: 14:03 (16:03 UTC)

Prognozė

Ataskaita buvo paskelbta 4 valandos ir 42 minutes, ne 11:21 UTC
Prognozė galioja nuo 22 metu 12 UTC su 22 metu 20 UTC
Vėjas 8 kt nuo kintamojo kryptimis
Matomumas 10 km arba daugiau
Išsisklaidę debesys ne aukštis 14000 ft
Su prošvaistėmis ne aukštis 18000 ft

TAF: BGSF 221121Z 2212/2220 VRB08KT 9999 SCT140 BKN180

Orai ataskaitas ir orų prognozės (METAR, TAF).

turimą stotys yra geltonos ir raudonos taškus žemėlapyje.

Perkelti pele per norėdami pamatyti stoties vardą.

Tada spustelėkite, norėdami matyti oro stebėjimo ir prognozės.

Norėdami pakeisti žemėlapį: spustelėkite ant žalios mygtukų su juodo kryžiaus žemyn,; žalią mygtuką su brūkšneliu, jei norite nutolinti; arba žalių rodyklių gretimoms žemėlapius.


METAR-TAF: